createdAt,value
2022-11-10T00:01:10.764Z,10.10
2022-11-10T00:03:39.348Z,10.20
2022-11-10T00:06:10.762Z,10.10
2022-11-10T00:08:37.547Z,10.00
2022-11-10T00:11:08.847Z,9.90
2022-11-10T00:13:56.480Z,9.80
2022-11-10T00:16:42.207Z,9.70
2022-11-10T00:19:09.012Z,9.60
2022-11-10T00:21:37.148Z,9.40
2022-11-10T00:24:04.605Z,9.50
2022-11-10T00:26:31.372Z,9.30
2022-11-10T00:28:58.090Z,9.40
2022-11-10T00:31:24.857Z,9.20
2022-11-10T00:33:51.614Z,9.00
2022-11-10T00:36:18.294Z,9.00
2022-11-10T00:38:44.957Z,8.90
2022-11-10T00:41:17.440Z,9.10
2022-11-10T00:43:44.173Z,8.80
2022-11-10T00:46:12.630Z,8.80
2022-11-10T00:48:39.337Z,8.70
2022-11-10T00:51:06.421Z,8.60
2022-11-10T00:53:35.481Z,8.50
2022-11-10T00:56:02.257Z,8.50
2022-11-10T00:58:28.991Z,8.50
2022-11-10T01:01:02.704Z,8.30
2022-11-10T01:03:29.640Z,8.30
2022-11-10T01:05:56.375Z,8.20
2022-11-10T01:08:23.551Z,8.10
2022-11-10T01:10:50.734Z,8.00
2022-11-10T01:13:17.404Z,8.10
2022-11-10T01:15:44.122Z,8.00
2022-11-10T01:18:13.779Z,7.90
2022-11-10T01:20:40.516Z,7.80
2022-11-10T01:23:07.231Z,7.80
2022-11-10T01:25:33.941Z,7.90
2022-11-10T01:28:03.510Z,7.70
2022-11-10T01:30:30.248Z,7.70
2022-11-10T01:32:56.934Z,7.60
2022-11-10T01:35:26.562Z,7.50
2022-11-10T01:37:56.354Z,7.70
2022-11-10T01:40:23.171Z,7.50
2022-11-10T01:42:58.710Z,7.50
2022-11-10T01:45:28.402Z,7.30
2022-11-10T01:48:01.723Z,7.20
2022-11-10T01:50:32.530Z,7.20
2022-11-10T01:53:03.224Z,7.20
2022-11-10T01:55:30.875Z,6.90
2022-11-10T01:58:00.307Z,7.00
2022-11-10T02:00:27.092Z,7.00
2022-11-10T02:03:19.236Z,6.90
2022-11-10T02:05:46.482Z,6.80
2022-11-10T02:08:15.924Z,6.80
2022-11-10T02:10:42.869Z,6.80
2022-11-10T02:13:15.093Z,6.70
2022-11-10T02:15:42.272Z,6.70
2022-11-10T02:18:09.212Z,6.60
2022-11-10T02:20:35.962Z,6.50
2022-11-10T02:23:35.412Z,6.60
2022-11-10T02:26:05.461Z,6.50
2022-11-10T02:28:37.022Z,6.30
2022-11-10T02:31:04.934Z,6.20
2022-11-10T02:33:31.993Z,6.20
2022-11-10T02:36:04.298Z,6.20
2022-11-10T02:38:32.382Z,6.10
2022-11-10T02:40:59.156Z,6.10
2022-11-10T02:43:26.075Z,6.00
2022-11-10T02:45:52.786Z,6.00
2022-11-10T02:48:20.161Z,5.90
2022-11-10T02:50:46.983Z,5.90
2022-11-10T02:53:13.748Z,6.00
2022-11-10T02:55:40.467Z,6.00
2022-11-10T02:58:07.203Z,5.80
2022-11-10T03:00:33.927Z,5.80
2022-11-10T03:03:05.278Z,5.80
2022-11-10T03:05:32.972Z,5.90
2022-11-10T03:08:02.603Z,5.80
2022-11-10T03:10:34.856Z,5.90
2022-11-10T03:13:02.366Z,5.90
2022-11-10T03:15:29.579Z,5.90
2022-11-10T03:17:56.555Z,5.80
2022-11-10T03:20:23.448Z,5.80
2022-11-10T03:22:55.963Z,5.60
2022-11-10T03:25:22.654Z,5.50
2022-11-10T03:27:49.484Z,5.40
2022-11-10T03:30:16.291Z,5.20
2022-11-10T03:32:43.108Z,5.30
2022-11-10T03:35:10.888Z,5.20
2022-11-10T03:37:37.774Z,5.30
2022-11-10T03:40:04.876Z,5.00
2022-11-10T03:42:31.588Z,5.10
2022-11-10T03:44:58.302Z,5.00
2022-11-10T03:47:25.045Z,4.90
2022-11-10T03:49:51.726Z,5.30
2022-11-10T03:52:21.536Z,5.00
2022-11-10T03:54:51.643Z,5.00
2022-11-10T03:57:18.399Z,4.90
2022-11-10T03:59:45.126Z,5.30
2022-11-10T04:02:11.893Z,5.10
2022-11-10T04:04:57.230Z,5.10
2022-11-10T04:07:42.703Z,5.10
2022-11-10T04:10:12.869Z,5.10
2022-11-10T04:12:58.240Z,5.10
2022-11-10T04:15:43.521Z,5.20
2022-11-10T04:18:41.367Z,5.40
2022-11-10T04:21:08.069Z,5.20
2022-11-10T04:23:38.831Z,5.40
2022-11-10T04:26:26.873Z,5.50
2022-11-10T04:28:55.961Z,5.70
2022-11-10T04:31:24.329Z,6.00
2022-11-10T04:33:53.741Z,5.80
2022-11-10T04:36:23.448Z,5.80
2022-11-10T04:38:50.313Z,5.60
2022-11-10T04:41:17.771Z,5.40
2022-11-10T04:43:44.820Z,5.30
2022-11-10T04:46:36.145Z,5.30
2022-11-10T04:49:04.792Z,5.20
2022-11-10T04:51:37.102Z,5.00
2022-11-10T04:54:05.387Z,4.90
2022-11-10T04:56:32.256Z,4.90
2022-11-10T04:58:58.967Z,5.00
2022-11-10T05:01:27.826Z,4.90
2022-11-10T05:03:55.487Z,4.80
2022-11-10T05:06:22.758Z,4.70
2022-11-10T05:08:49.626Z,4.70
2022-11-10T05:11:16.694Z,4.60
2022-11-10T05:13:44.666Z,4.60
2022-11-10T05:16:12.395Z,4.60
2022-11-10T05:18:39.695Z,4.60
2022-11-10T05:21:06.582Z,4.60
2022-11-10T05:23:39.588Z,4.70
2022-11-10T05:26:12.381Z,4.70
2022-11-10T05:28:43.951Z,4.70
2022-11-10T05:31:11.571Z,4.70
2022-11-10T05:33:38.949Z,4.60
2022-11-10T05:36:06.712Z,4.40
2022-11-10T05:38:33.480Z,4.40
2022-11-10T05:41:00.384Z,4.50
2022-11-10T05:43:27.127Z,4.40
2022-11-10T05:45:53.868Z,4.40
2022-11-10T05:48:20.616Z,4.40
2022-11-10T05:50:47.410Z,4.50
2022-11-10T05:53:15.235Z,4.50
2022-11-10T05:55:41.939Z,4.40
2022-11-10T05:58:09.680Z,4.40
2022-11-10T06:00:36.593Z,4.40
2022-11-10T06:03:14.073Z,4.30
2022-11-10T06:05:41.000Z,4.40
2022-11-10T06:08:08.500Z,4.40
2022-11-10T06:10:36.275Z,4.40
2022-11-10T06:13:03.471Z,4.30
2022-11-10T06:15:30.593Z,4.30
2022-11-10T06:17:57.643Z,4.20
2022-11-10T06:20:26.225Z,4.20
2022-11-10T06:23:01.449Z,4.10
2022-11-10T06:25:32.987Z,3.90
2022-11-10T06:28:08.853Z,4.00
2022-11-10T06:30:37.791Z,4.00
2022-11-10T06:33:04.884Z,4.10
2022-11-10T06:35:31.834Z,4.10
2022-11-10T06:38:00.555Z,4.20
2022-11-10T06:40:28.429Z,4.30
2022-11-10T06:42:55.415Z,4.30
2022-11-10T06:45:22.820Z,4.30
2022-11-10T06:47:49.559Z,4.40
2022-11-10T06:50:17.072Z,4.50
2022-11-10T06:52:43.759Z,4.60
2022-11-10T06:55:10.504Z,4.70
2022-11-10T06:57:39.070Z,4.80
2022-11-10T07:00:06.542Z,5.00
2022-11-10T07:02:33.351Z,5.10
2022-11-10T07:05:00.140Z,5.30
2022-11-10T07:07:26.847Z,5.40
2022-11-10T07:09:53.584Z,5.60
2022-11-10T07:12:20.315Z,5.70
2022-11-10T07:14:46.965Z,5.80
2022-11-10T07:17:14.127Z,5.80
2022-11-10T07:19:40.832Z,5.80
2022-11-10T07:22:11.225Z,5.90
2022-11-10T07:24:38.304Z,6.00
2022-11-10T07:27:05.014Z,6.30
2022-11-10T07:29:34.480Z,6.80
2022-11-10T07:32:01.197Z,7.60
2022-11-10T07:34:28.013Z,8.70
2022-11-10T07:36:57.231Z,9.70
2022-11-10T07:39:26.960Z,11.00
2022-11-10T07:41:53.689Z,12.40
2022-11-10T07:44:20.365Z,13.50
2022-11-10T07:46:47.219Z,14.10
2022-11-10T07:49:14.018Z,15.00
2022-11-10T07:51:42.670Z,15.70
2022-11-10T07:54:09.594Z,16.80
2022-11-10T07:56:36.371Z,17.30
2022-11-10T07:59:03.237Z,17.70
2022-11-10T08:01:30.039Z,17.60
2022-11-10T08:03:56.834Z,18.10
2022-11-10T08:06:26.428Z,18.90
2022-11-10T08:08:53.159Z,18.10
2022-11-10T08:11:19.842Z,16.70
2022-11-10T08:13:46.543Z,15.10
2022-11-10T08:16:13.256Z,13.90
2022-11-10T08:18:39.953Z,12.80
2022-11-10T08:21:09.448Z,12.20
2022-11-10T08:23:36.261Z,11.80
2022-11-10T08:26:02.975Z,11.20
2022-11-10T08:28:29.728Z,11.10
2022-11-10T08:31:02.812Z,10.80
2022-11-10T08:33:31.926Z,10.40
2022-11-10T08:36:01.664Z,10.20
2022-11-10T08:38:28.471Z,10.00
2022-11-10T08:40:57.493Z,9.90
2022-11-10T08:43:24.891Z,10.00
2022-11-10T08:45:56.241Z,9.90
2022-11-10T08:48:23.064Z,10.00
2022-11-10T08:50:50.376Z,10.10
2022-11-10T08:53:24.275Z,10.30
2022-11-10T08:55:53.143Z,10.10
2022-11-10T08:58:22.661Z,10.40
2022-11-10T09:00:49.802Z,11.00
2022-11-10T09:03:19.380Z,10.90
2022-11-10T09:05:47.473Z,11.90
2022-11-10T09:08:15.103Z,12.80
2022-11-10T09:10:44.451Z,13.20
2022-11-10T09:13:13.066Z,13.70
2022-11-10T09:15:40.061Z,14.40
2022-11-10T09:18:07.810Z,14.80
2022-11-10T09:20:38.853Z,15.40
2022-11-10T09:23:13.864Z,15.40
2022-11-10T09:25:41.339Z,16.00
2022-11-10T09:28:15.334Z,16.20
2022-11-10T09:30:42.644Z,16.20
2022-11-10T09:33:09.347Z,16.30
2022-11-10T09:35:36.161Z,16.60
2022-11-10T09:38:05.888Z,16.60
2022-11-10T09:40:57.323Z,16.30
2022-11-10T09:43:42.582Z,16.20
2022-11-10T09:46:27.463Z,16.60
2022-11-10T09:49:06.887Z,19.00
2022-11-10T09:51:38.140Z,21.30
2022-11-10T09:54:13.038Z,23.30
2022-11-10T09:56:41.537Z,24.60
2022-11-10T09:59:18.434Z,25.80
2022-11-10T10:01:59.526Z,26.00
2022-11-10T10:04:32.955Z,25.20
2022-11-10T10:07:25.107Z,25.70
2022-11-10T10:10:18.107Z,26.50
2022-11-10T10:13:09.089Z,26.80
2022-11-10T10:16:03.342Z,26.30
2022-11-10T10:18:54.637Z,26.00
2022-11-10T10:22:07.616Z,24.50
2022-11-10T10:24:34.796Z,23.00
2022-11-10T10:27:06.168Z,21.60
2022-11-10T10:29:39.408Z,21.20
2022-11-10T10:32:12.361Z,22.10
2022-11-10T10:34:41.129Z,23.00
2022-11-10T10:37:30.225Z,23.70
2022-11-10T10:39:56.938Z,23.30
2022-11-10T10:42:33.139Z,23.20
2022-11-10T10:45:39.361Z,23.30
2022-11-10T10:48:24.816Z,23.50
2022-11-10T10:50:51.715Z,23.40
2022-11-10T10:53:24.247Z,23.10
2022-11-10T10:56:21.857Z,23.10
2022-11-10T10:58:55.562Z,22.50
2022-11-10T11:01:38.173Z,22.00
2022-11-10T11:04:28.956Z,22.30
2022-11-10T11:07:01.609Z,22.30
2022-11-10T11:09:42.583Z,22.50
2022-11-10T11:12:18.143Z,22.70
2022-11-10T11:14:46.226Z,22.60
2022-11-10T11:17:21.759Z,22.30
2022-11-10T11:19:59.409Z,22.00
2022-11-10T11:22:45.749Z,21.70
2022-11-10T11:25:30.973Z,21.80
2022-11-10T11:28:43.565Z,21.80
2022-11-10T11:31:30.026Z,21.40
2022-11-10T11:34:15.604Z,21.30
2022-11-10T11:36:55.520Z,21.10
2022-11-10T11:39:44.096Z,20.60
2022-11-10T11:42:31.918Z,20.70
2022-11-10T11:45:24.122Z,20.90
2022-11-10T11:48:19.773Z,21.10
2022-11-10T11:51:05.334Z,21.00
2022-11-10T11:53:50.384Z,20.20
2022-11-10T11:56:17.101Z,19.40
2022-11-10T11:58:45.886Z,18.70
2022-11-10T12:01:33.446Z,18.50
2022-11-10T12:04:45.553Z,18.50
2022-11-10T12:07:25.982Z,18.50
2022-11-10T12:10:22.838Z,18.20
2022-11-10T12:12:58.346Z,17.90
2022-11-10T12:15:40.120Z,17.50
2022-11-10T12:19:02.199Z,17.10
2022-11-10T12:21:51.853Z,16.50
2022-11-10T12:24:21.281Z,15.60
2022-11-10T12:26:55.818Z,15.10
2022-11-10T12:29:33.998Z,14.70
2022-11-10T12:32:28.923Z,14.40
2022-11-10T12:35:24.773Z,14.30
2022-11-10T12:38:13.425Z,14.40
2022-11-10T12:40:46.339Z,14.60
2022-11-10T12:43:38.778Z,14.90
2022-11-10T12:46:09.309Z,15.10
2022-11-10T12:48:53.276Z,15.30
2022-11-10T12:51:27.924Z,15.40
2022-11-10T12:53:54.654Z,15.40
2022-11-10T12:57:08.084Z,15.30
2022-11-10T12:59:37.682Z,15.30
2022-11-10T13:02:24.505Z,15.20
2022-11-10T13:05:10.123Z,15.30
2022-11-10T13:07:36.990Z,15.30
2022-11-10T13:10:18.746Z,15.20
2022-11-10T13:13:03.873Z,15.10
2022-11-10T13:15:39.721Z,14.90
2022-11-10T13:18:09.792Z,14.70
2022-11-10T13:20:39.562Z,14.40
2022-11-10T13:23:31.206Z,14.20
2022-11-10T13:26:09.220Z,14.10
2022-11-10T13:28:47.933Z,14.00
2022-11-10T13:31:31.139Z,13.90
2022-11-10T13:34:11.760Z,13.80
2022-11-10T13:36:47.313Z,13.80
2022-11-10T13:39:27.949Z,13.80
2022-11-10T13:42:03.047Z,13.80
2022-11-10T13:44:42.189Z,13.60
2022-11-10T13:47:09.097Z,13.80
2022-11-10T13:49:51.135Z,13.80
2022-11-10T13:52:43.645Z,14.00
2022-11-10T13:55:25.762Z,13.70
2022-11-10T13:58:18.491Z,13.80
2022-11-10T14:00:53.877Z,14.00
2022-11-10T14:03:45.790Z,14.10
2022-11-10T14:06:35.816Z,14.20
2022-11-10T14:09:29.118Z,14.30
2022-11-10T14:12:30.575Z,14.30
2022-11-10T14:15:02.947Z,14.30
2022-11-10T14:17:34.543Z,14.30
2022-11-10T14:20:02.536Z,14.00
2022-11-10T14:22:41.821Z,13.90
2022-11-10T14:25:36.837Z,14.00
2022-11-10T14:28:21.127Z,14.00
2022-11-10T14:30:53.038Z,14.00
2022-11-10T14:33:21.056Z,14.00
2022-11-10T14:35:58.476Z,13.70
2022-11-10T14:38:30.314Z,13.60
2022-11-10T14:41:02.330Z,13.50
2022-11-10T14:43:36.212Z,13.10
2022-11-10T14:46:05.135Z,12.90
2022-11-10T14:48:38.781Z,12.70
2022-11-10T14:51:13.170Z,12.60
2022-11-10T14:53:51.465Z,12.40
2022-11-10T14:56:23.347Z,13.00
2022-11-10T14:58:53.808Z,12.20
2022-11-10T15:01:27.099Z,12.10
2022-11-10T15:03:54.684Z,11.70
2022-11-10T15:06:25.013Z,11.70
2022-11-10T15:08:51.707Z,11.60
2022-11-10T15:11:51.355Z,11.60
2022-11-10T15:15:00.495Z,11.30
2022-11-10T15:17:47.400Z,11.30
2022-11-10T15:20:35.108Z,11.10
2022-11-10T15:23:06.168Z,10.90
2022-11-10T15:25:40.934Z,10.90
2022-11-10T15:28:13.855Z,10.70
2022-11-10T15:30:55.253Z,10.70
2022-11-10T15:33:26.596Z,10.50
2022-11-10T15:35:55.662Z,10.50
2022-11-10T15:38:27.690Z,10.30
2022-11-10T15:41:16.492Z,10.10
2022-11-10T15:43:45.960Z,10.00
2022-11-10T15:46:18.103Z,9.80
2022-11-10T15:48:51.423Z,9.80
2022-11-10T15:51:25.677Z,9.80
2022-11-10T15:53:54.263Z,9.50
2022-11-10T15:58:57.668Z,9.20
2022-11-10T16:01:27.643Z,9.20
2022-11-10T16:03:55.136Z,9.00
2022-11-10T16:06:22.175Z,8.90
2022-11-10T16:08:48.948Z,9.30
2022-11-10T16:11:22.651Z,8.80
2022-11-10T16:13:52.007Z,8.70
2022-11-10T16:18:47.106Z,8.40
2022-11-10T16:21:16.400Z,8.40
2022-11-10T16:23:43.839Z,8.20
2022-11-10T17:11:16.353Z,7.10
2022-11-10T17:13:43.175Z,7.10
2022-11-10T17:16:21.289Z,6.90
2022-11-10T17:18:48.779Z,6.80
2022-11-10T17:21:15.583Z,6.80
2022-11-10T17:23:42.510Z,6.70
2022-11-10T17:26:12.092Z,6.60
2022-11-10T17:28:38.754Z,6.50
2022-11-10T17:31:05.534Z,6.50
2022-11-10T17:33:32.254Z,6.40
2022-11-10T17:36:00.290Z,6.30
2022-11-10T17:38:29.144Z,6.30
2022-11-10T17:40:56.352Z,6.20
2022-11-10T17:43:24.277Z,6.20
2022-11-10T17:45:51.594Z,6.20
2022-11-10T17:48:21.317Z,6.10
2022-11-10T17:50:50.952Z,6.00
2022-11-10T17:53:17.717Z,6.20
2022-11-10T17:55:44.444Z,6.10
2022-11-10T17:58:11.388Z,6.00
2022-11-10T18:00:38.292Z,6.20
2022-11-10T18:03:09.029Z,5.90
2022-11-10T18:05:38.194Z,6.40
2022-11-10T18:08:05.019Z,5.80
2022-11-10T18:10:31.768Z,5.80
2022-11-10T18:12:59.458Z,6.00
2022-11-10T18:15:26.732Z,5.90
2022-11-10T18:17:59.947Z,6.00
2022-11-10T18:20:27.708Z,6.00
2022-11-10T18:22:54.466Z,5.80
2022-11-10T18:25:21.206Z,5.50
2022-11-10T18:27:47.943Z,5.70
2022-11-10T18:30:15.206Z,5.60
2022-11-10T18:32:41.954Z,5.60
2022-11-10T18:35:08.860Z,5.30
2022-11-10T18:37:38.908Z,5.40
2022-11-10T18:40:07.380Z,5.30
2022-11-10T18:42:34.435Z,5.30
2022-11-10T18:45:01.155Z,5.20
2022-11-10T18:47:27.882Z,5.20
2022-11-10T18:49:54.571Z,5.20
2022-11-10T18:52:21.266Z,5.10
2022-11-10T18:54:47.941Z,5.10
2022-11-10T18:57:16.641Z,5.20
2022-11-10T18:59:43.603Z,5.20
2022-11-10T19:02:13.759Z,5.20
2022-11-10T19:04:40.894Z,5.20
2022-11-10T19:07:07.661Z,5.10
2022-11-10T19:09:34.396Z,5.10
2022-11-10T19:12:01.081Z,5.00
2022-11-10T19:14:27.798Z,5.20
2022-11-10T19:16:54.617Z,5.10
2022-11-10T19:19:21.306Z,5.20
2022-11-10T19:21:48.097Z,5.20
2022-11-10T19:26:54.432Z,5.50
2022-11-10T19:29:21.230Z,5.20
2022-11-10T19:31:49.172Z,5.20
2022-11-10T19:34:18.590Z,5.20
2022-11-10T19:36:46.235Z,5.10
2022-11-10T19:39:13.175Z,5.10
2022-11-10T19:41:39.927Z,5.00
2022-11-10T19:44:06.649Z,5.40
2022-11-10T19:46:36.833Z,5.10
2022-11-10T19:49:04.461Z,5.00
2022-11-10T19:51:31.245Z,5.00
2022-11-10T19:54:01.613Z,5.00
2022-11-10T19:56:31.857Z,4.90
2022-11-10T19:58:59.168Z,4.80
2022-11-10T22:49:21.128Z,3.90
2022-11-10T22:51:50.572Z,3.30
2022-11-10T22:54:22.868Z,3.20
2022-11-10T22:56:50.958Z,3.10
2022-11-10T22:59:18.159Z,3.00
2022-11-10T23:01:44.944Z,3.10
2022-11-10T23:04:12.092Z,2.90
2022-11-10T23:06:38.910Z,3.00
2022-11-10T23:09:06.066Z,3.00
2022-11-10T23:11:33.746Z,2.90
2022-11-10T23:14:00.633Z,2.90
2022-11-10T23:16:29.861Z,2.90
2022-11-10T23:18:57.628Z,2.90
2022-11-10T23:21:27.401Z,2.80
2022-11-10T23:23:54.876Z,2.70
2022-11-10T23:26:24.125Z,2.70
2022-11-10T23:28:52.570Z,2.70
2022-11-10T23:31:21.997Z,2.70
2022-11-10T23:33:51.164Z,2.70
2022-11-10T23:36:19.217Z,2.80
2022-11-10T23:38:47.072Z,2.80
2022-11-10T23:41:16.320Z,2.60
2022-11-10T23:43:43.313Z,2.80
2022-11-10T23:46:11.089Z,2.80
2022-11-10T23:48:38.895Z,2.80
2022-11-10T23:51:07.344Z,2.90
2022-11-10T23:53:34.093Z,2.90
2022-11-10T23:56:03.703Z,2.90
2022-11-10T23:58:30.448Z,2.90
